Time;durP1;ratioP1;P1;durP2;ratioP2;P2;SDS_P1;SDS_P2;PMS_P1;PMS_P2;Temp;Humidity;BMP_temperature;BMP_pressure;BME280_temperature;BME280_humidity;BME280_pressure;Samples;Min_cycle;Max_cycle;Signal;HPM_P1;HPM_P2
2023/04/11 00:00:35;;;;;;;188.60;33.85;;;;;;;;;;6276997;28;20067;-60
2023/04/11 00:03:46;;;;;;;178.32;32.35;;;;;;;;;;6291462;28;20044;-60
2023/04/11 00:06:47;;;;;;;143.25;31.23;;;;;;;;;;6291799;28;20253;-60
2023/04/11 00:09:47;;;;;;;136.82;34.63;;;;;;;;;;6291163;28;20051;-59
2023/04/11 00:12:48;;;;;;;111.07;35.97;;;;;;;;;;6291219;28;20406;-60
2023/04/11 00:15:54;;;;;;;137.82;32.50;;;;;;;;;;6292027;28;20063;-59
2023/04/11 00:18:55;;;;;;;277.75;39.53;;;;;;;;;;6293512;28;20123;-60
2023/04/11 00:21:57;;;;;;;238.10;33.70;;;;;;;;;;6295292;28;20044;-61
2023/04/11 00:24:57;;;;;;;207.83;35.37;;;;;;;;;;6296496;28;20383;-60
2023/04/11 00:27:58;;;;;;;118.45;33.28;;;;;;;;;;6296459;28;20059;-60
2023/04/11 00:30:59;;;;;;;196.43;37.92;;;;;;;;;;6295786;28;20041;-60
2023/04/11 00:33:59;;;;;;;146.75;38.20;;;;;;;;;;6296465;28;20090;-59
2023/04/11 00:37:00;;;;;;;167.80;37.42;;;;;;;;;;6296083;28;20478;-59
2023/04/11 00:40:04;;;;;;;123.25;34.58;;;;;;;;;;6295999;28;20040;-60
2023/04/11 00:43:05;;;;;;;94.72;35.72;;;;;;;;;;6295415;28;20044;-60
2023/04/11 00:46:07;;;;;;;197.13;35.88;;;;;;;;;;6295305;28;20060;-60
2023/04/11 00:49:11;;;;;;;179.88;35.25;;;;;;;;;;6296403;28;20051;-59
2023/04/11 00:52:12;;;;;;;228.02;36.25;;;;;;;;;;6294542;28;20054;-60
2023/04/11 00:55:13;;;;;;;225.45;36.10;;;;;;;;;;6296070;28;20052;-60
2023/04/11 00:58:15;;;;;;;232.07;35.90;;;;;;;;;;6296136;28;20041;-59
2023/04/11 01:01:18;;;;;;;149.82;32.35;;;;;;;;;;6295046;28;20369;-59
2023/04/11 01:04:20;;;;;;;169.75;33.67;;;;;;;;;;6290202;28;20124;-59
2023/04/11 01:07:22;;;;;;;226.70;35.20;;;;;;;;;;6284895;28;20047;-61
2023/04/11 01:10:24;;;;;;;224.93;34.20;;;;;;;;;;6295322;28;20074;-59
2023/04/11 01:13:25;;;;;;;173.73;32.80;;;;;;;;;;6294739;28;20053;-60
2023/04/11 01:16:25;;;;;;;207.20;32.17;;;;;;;;;;6295238;28;20049;-59
2023/04/11 01:19:27;;;;;;;194.70;32.53;;;;;;;;;;6295401;28;20052;-60
2023/04/11 01:22:29;;;;;;;189.25;33.50;;;;;;;;;;6294296;28;20083;-60
2023/04/11 01:25:29;;;;;;;249.48;37.15;;;;;;;;;;6295171;28;20051;-60
2023/04/11 01:28:30;;;;;;;236.95;36.85;;;;;;;;;;6295446;28;20407;-61
2023/04/11 01:31:31;;;;;;;252.93;38.00;;;;;;;;;;6293042;28;20377;-60
2023/04/11 01:34:34;;;;;;;209.23;36.35;;;;;;;;;;6294908;28;20059;-60
2023/04/11 01:37:34;;;;;;;202.45;34.45;;;;;;;;;;6295451;28;20052;-61
2023/04/11 01:40:36;;;;;;;205.60;34.58;;;;;;;;;;6294872;28;20487;-60
2023/04/11 01:43:37;;;;;;;200.55;35.40;;;;;;;;;;6293785;28;20048;-60
2023/04/11 01:46:38;;;;;;;164.98;37.10;;;;;;;;;;6295303;28;20060;-60
2023/04/11 01:49:39;;;;;;;155.35;36.40;;;;;;;;;;6294983;28;20153;-59
2023/04/11 01:52:40;;;;;;;214.93;36.35;;;;;;;;;;6293342;28;20052;-61
2023/04/11 01:55:40;;;;;;;239.77;38.83;;;;;;;;;;6294448;28;20057;-60
2023/04/11 01:58:41;;;;;;;208.93;38.05;;;;;;;;;;6294630;28;20637;-60
2023/04/11 02:01:43;;;;;;;241.25;35.65;;;;;;;;;;6293723;28;20492;-59
2023/04/11 02:04:44;;;;;;;225.35;34.13;;;;;;;;;;6293552;28;20396;-61
2023/04/11 02:07:44;;;;;;;182.48;31.60;;;;;;;;;;6294433;28;20063;-61
2023/04/11 02:10:45;;;;;;;145.05;30.48;;;;;;;;;;6294007;28;20053;-61
2023/04/11 02:13:46;;;;;;;125.30;31.13;;;;;;;;;;6293006;28;20052;-60
2023/04/11 02:16:54;;;;;;;88.18;29.75;;;;;;;;;;6294020;28;20053;-60
2023/04/11 02:19:56;;;;;;;123.50;30.80;;;;;;;;;;6294091;28;20048;-60
2023/04/11 02:22:57;;;;;;;85.80;29.75;;;;;;;;;;6292894;28;20106;-60
2023/04/11 02:26:00;;;;;;;99.82;27.27;;;;;;;;;;6293611;28;20052;-60
2023/04/11 02:29:00;;;;;;;86.00;26.40;;;;;;;;;;6293766;28;20067;-61
2023/04/11 02:32:01;;;;;;;72.40;23.80;;;;;;;;;;6292818;28;20045;-59
2023/04/11 02:35:03;;;;;;;80.75;25.08;;;;;;;;;;6293241;28;20391;-60
2023/04/11 02:38:04;;;;;;;97.35;25.90;;;;;;;;;;6293464;28;20048;-59
2023/04/11 02:41:06;;;;;;;75.50;24.20;;;;;;;;;;6293187;28;20051;-60
2023/04/11 02:44:09;;;;;;;85.45;25.30;;;;;;;;;;6292433;28;20045;-59
2023/04/11 02:47:10;;;;;;;137.75;26.95;;;;;;;;;;6293209;28;20132;-60
2023/04/11 02:50:11;;;;;;;84.78;25.05;;;;;;;;;;6293114;28;20060;-60
2023/04/11 02:53:11;;;;;;;77.03;23.45;;;;;;;;;;6291971;28;20056;-60
2023/04/11 02:56:17;;;;;;;55.50;23.13;;;;;;;;;;6293091;28;20810;-61
2023/04/11 02:59:18;;;;;;;49.72;23.83;;;;;;;;;;6292705;28;20639;-60
2023/04/11 03:02:18;;;;;;;93.35;27.10;;;;;;;;;;6292757;28;20045;-60
2023/04/11 03:05:19;;;;;;;70.03;30.50;;;;;;;;;;6292413;28;20048;-60
2023/04/11 03:08:19;;;;;;;65.15;27.35;;;;;;;;;;6293210;28;20056;-60
2023/04/11 03:11:20;;;;;;;67.90;25.48;;;;;;;;;;6292624;28;20494;-60
2023/04/11 03:14:21;;;;;;;66.57;26.00;;;;;;;;;;6291353;28;20044;-60
2023/04/11 03:17:21;;;;;;;113.57;31.70;;;;;;;;;;6293049;28;20101;-61
2023/04/11 03:20:22;;;;;;;62.88;23.25;;;;;;;;;;6292473;28;20131;-61
2023/04/11 03:23:23;;;;;;;110.22;23.67;;;;;;;;;;6291717;28;20079;-60
2023/04/11 03:26:26;;;;;;;68.85;22.23;;;;;;;;;;6292475;28;20055;-60
2023/04/11 03:29:27;;;;;;;79.28;19.80;;;;;;;;;;6292632;28;20037;-60
2023/04/11 03:32:28;;;;;;;50.85;20.17;;;;;;;;;;6291846;28;20064;-61
2023/04/11 03:35:28;;;;;;;80.97;19.13;;;;;;;;;;6292083;28;20040;-59
2023/04/11 03:38:29;;;;;;;99.90;20.23;;;;;;;;;;6292204;28;20380;-59
2023/04/11 03:41:30;;;;;;;43.00;19.23;;;;;;;;;;6292687;28;20464;-61
2023/04/11 03:44:30;;;;;;;66.35;18.75;;;;;;;;;;6291602;28;20092;-60
2023/04/11 03:47:31;;;;;;;67.63;19.17;;;;;;;;;;6292272;28;20398;-60
2023/04/11 03:50:31;;;;;;;83.32;21.65;;;;;;;;;;6292418;28;20067;-60
2023/04/11 03:53:32;;;;;;;50.80;22.80;;;;;;;;;;6293123;28;20521;-59
2023/04/11 03:56:33;;;;;;;49.55;19.77;;;;;;;;;;6297035;28;20114;-60
2023/04/11 03:59:33;;;;;;;50.53;19.35;;;;;;;;;;6297534;28;20044;-60
2023/04/11 04:02:34;;;;;;;69.97;20.23;;;;;;;;;;6296585;28;20052;-60
2023/04/11 04:05:35;;;;;;;58.17;21.13;;;;;;;;;;6297095;28;20106;-61
2023/04/11 04:08:36;;;;;;;94.55;24.75;;;;;;;;;;6297382;28;20048;-61
2023/04/11 04:11:36;;;;;;;72.32;24.15;;;;;;;;;;6296711;28;20055;-59
2023/04/11 04:14:37;;;;;;;79.70;24.23;;;;;;;;;;6295799;28;20133;-61
2023/04/11 04:17:37;;;;;;;64.15;23.05;;;;;;;;;;6297056;28;20044;-60
2023/04/11 04:20:38;;;;;;;64.75;22.50;;;;;;;;;;6296902;28;20040;-60
2023/04/11 04:23:46;;;;;;;65.75;21.10;;;;;;;;;;6288636;28;20390;-59
2023/04/11 04:26:48;;;;;;;69.20;22.58;;;;;;;;;;6285956;28;20059;-61
2023/04/11 04:29:50;;;;;;;;;;;;;;;;;;6297126;28;20106;-61
2023/04/11 04:32:53;;;;;;;60.50;19.40;;;;;;;;;;6296016;28;19928;-60
2023/04/11 04:35:58;;;;;;;72.13;18.63;;;;;;;;;;6295738;28;20048;-59
2023/04/11 04:39:00;;;;;;;74.80;20.65;;;;;;;;;;6296419;28;20093;-59
2023/04/11 04:42:03;;;;;;;49.97;20.00;;;;;;;;;;6295849;28;20695;-60
2023/04/11 04:45:04;;;;;;;56.53;23.08;;;;;;;;;;6293788;28;20105;-61
2023/04/11 04:48:04;;;;;;;95.22;33.85;;;;;;;;;;6296506;28;20049;-61
2023/04/11 04:51:06;;;;;;;55.97;25.50;;;;;;;;;;6293227;28;20494;-61
2023/04/11 04:54:06;;;;;;;48.15;22.23;;;;;;;;;;6294844;28;20055;-63
2023/04/11 04:57:07;;;;;;;58.35;24.33;;;;;;;;;;6292151;28;20068;-60
2023/04/11 05:00:10;;;;;;;62.85;23.13;;;;;;;;;;6285228;28;20053;-61
2023/04/11 05:03:11;;;;;;;96.28;23.70;;;;;;;;;;6294524;28;20041;-61
2023/04/11 05:06:12;;;;;;;82.18;23.52;;;;;;;;;;6285547;28;20037;-60
2023/04/11 05:09:13;;;;;;;55.28;21.95;;;;;;;;;;6293295;28;20041;-61
2023/04/11 05:12:14;;;;;;;60.60;21.85;;;;;;;;;;6293235;28;20052;-61
2023/04/11 05:15:15;;;;;;;69.72;22.15;;;;;;;;;;6293971;28;20455;-61
2023/04/11 05:18:16;;;;;;;51.85;22.90;;;;;;;;;;6295429;28;20044;-60
2023/04/11 05:21:17;;;;;;;64.18;27.35;;;;;;;;;;6295304;28;20049;-60
2023/04/11 05:24:17;;;;;;;47.38;22.83;;;;;;;;;;6294400;28;20079;-61
2023/04/11 05:27:18;;;;;;;61.70;21.90;;;;;;;;;;6294941;28;20449;-61
2023/04/11 05:30:18;;;;;;;47.63;22.75;;;;;;;;;;6294934;28;20048;-60
2023/04/11 05:33:20;;;;;;;51.28;24.30;;;;;;;;;;6294430;28;20046;-60
2023/04/11 05:36:21;;;;;;;61.37;23.33;;;;;;;;;;6294012;28;20049;-60
2023/04/11 05:39:22;;;;;;;68.43;27.48;;;;;;;;;;6295151;28;20301;-60
2023/04/11 05:42:22;;;;;;;84.95;34.63;;;;;;;;;;6294787;28;20537;-60
2023/04/11 05:45:23;;;;;;;66.72;27.90;;;;;;;;;;6293487;28;20125;-61
2023/04/11 05:48:23;;;;;;;57.40;23.77;;;;;;;;;;6289953;28;20048;-60
2023/04/11 05:51:25;;;;;;;45.05;20.80;;;;;;;;;;6271910;28;20710;-60
2023/04/11 05:54:34;;;;;;;49.33;19.87;;;;;;;;;;6270039;28;20041;-61
2023/04/11 05:57:34;;;;;;;44.38;24.38;;;;;;;;;;6268995;28;20041;-61
2023/04/11 06:00:37;;;;;;;37.10;20.30;;;;;;;;;;6280410;28;20429;-61
2023/04/11 06:03:38;;;;;;;38.72;22.88;;;;;;;;;;6290994;28;20060;-60
2023/04/11 06:06:38;;;;;;;37.05;21.50;;;;;;;;;;6279920;28;20159;-60
2023/04/11 06:09:41;;;;;;;35.88;20.50;;;;;;;;;;6273949;28;20041;-58
2023/04/11 06:12:41;;;;;;;31.85;19.95;;;;;;;;;;6277321;28;20579;-60
2023/04/11 06:15:42;;;;;;;31.60;17.75;;;;;;;;;;6271240;28;20044;-61
2023/04/11 06:18:42;;;;;;;35.65;21.40;;;;;;;;;;6269405;28;20067;-61
2023/04/11 06:21:45;;;;;;;33.85;20.23;;;;;;;;;;6271537;28;20045;-61
2023/04/11 06:24:46;;;;;;;33.42;19.95;;;;;;;;;;6270969;28;20087;-61
2023/04/11 06:27:47;;;;;;;38.10;20.65;;;;;;;;;;6276389;28;20234;-62
2023/04/11 06:30:47;;;;;;;37.15;19.80;;;;;;;;;;6271746;28;20056;-60
2023/04/11 06:33:48;;;;;;;36.50;20.13;;;;;;;;;;6269243;28;20491;-61
2023/04/11 06:36:49;;;;;;;38.30;22.80;;;;;;;;;;6276857;28;20502;-60
2023/04/11 06:39:49;;;;;;;35.92;21.17;;;;;;;;;;6272564;28;20033;-61
2023/04/11 06:42:50;;;;;;;37.72;21.23;;;;;;;;;;6271187;28;20044;-61
2023/04/11 06:45:51;;;;;;;43.65;24.80;;;;;;;;;;6268077;28;20109;-61
2023/04/11 06:48:51;;;;;;;34.22;19.98;;;;;;;;;;6269114;28;20480;-60
2023/04/11 06:51:53;;;;;;;38.47;23.13;;;;;;;;;;6271964;28;20044;-60
2023/04/11 06:54:53;;;;;;;34.30;20.40;;;;;;;;;;6269450;28;20083;-60
2023/04/11 06:57:54;;;;;;;38.35;21.67;;;;;;;;;;6273097;28;20480;-61
2023/04/11 07:00:55;;;;;;;41.05;23.42;;;;;;;;;;6284555;28;21074;-61
2023/04/11 07:03:55;;;;;;;31.73;19.23;;;;;;;;;;6270846;28;20125;-60
2023/04/11 07:06:56;;;;;;;30.80;18.55;;;;;;;;;;6267788;28;20041;-62
2023/04/11 07:09:57;;;;;;;29.40;18.08;;;;;;;;;;6269839;28;20048;-60
2023/04/11 07:12:57;;;;;;;31.55;18.73;;;;;;;;;;6266738;28;20557;-61
2023/04/11 07:15:58;;;;;;;27.67;16.70;;;;;;;;;;6271105;28;20143;-62
2023/04/11 07:18:58;;;;;;;31.98;18.42;;;;;;;;;;6269522;28;20654;-61
2023/04/11 07:22:00;;;;;;;31.80;20.52;;;;;;;;;;6271625;28;20048;-61
2023/04/11 07:25:03;;;;;;;29.80;18.23;;;;;;;;;;6267774;28;20041;-61
2023/04/11 07:28:06;;;;;;;32.95;19.52;;;;;;;;;;6270536;28;20048;-61
2023/04/11 07:31:07;;;;;;;32.58;19.55;;;;;;;;;;6268329;28;20533;-60
2023/04/11 07:34:07;;;;;;;30.33;19.08;;;;;;;;;;6266387;28;20040;-60
2023/04/11 07:37:08;;;;;;;27.20;15.90;;;;;;;;;;6268796;28;20493;-61
2023/04/11 07:40:13;;;;;;;25.85;16.42;;;;;;;;;;6268659;28;20470;-60
2023/04/11 07:43:13;;;;;;;21.08;13.43;;;;;;;;;;6270609;28;20082;-60
2023/04/11 07:46:14;;;;;;;24.17;13.68;;;;;;;;;;6282539;28;20839;-61
2023/04/11 07:49:14;;;;;;;30.13;16.02;;;;;;;;;;6267999;28;20047;-61
2023/04/11 07:52:15;;;;;;;24.08;12.43;;;;;;;;;;6270143;28;20124;-61
2023/04/11 07:55:16;;;;;;;16.50;11.05;;;;;;;;;;6268899;28;20055;-61
2023/04/11 07:58:16;;;;;;;15.15;9.82;;;;;;;;;;6269098;28;20067;-61
2023/04/11 08:01:24;;;;;;;17.10;10.60;;;;;;;;;;6267972;28;20076;-60
2023/04/11 08:04:25;;;;;;;19.33;11.30;;;;;;;;;;6269655;28;20075;-60
2023/04/11 08:07:26;;;;;;;20.95;12.88;;;;;;;;;;6272841;28;20093;-60
2023/04/11 08:10:26;;;;;;;14.55;9.48;;;;;;;;;;6274965;28;20415;-60
2023/04/11 08:13:27;;;;;;;19.85;11.75;;;;;;;;;;6268414;28;20067;-60
2023/04/11 08:16:27;;;;;;;28.02;15.18;;;;;;;;;;6268785;28;20072;-61
2023/04/11 08:19:28;;;;;;;22.63;12.90;;;;;;;;;;6267887;28;20500;-60
2023/04/11 08:22:29;;;;;;;15.10;9.38;;;;;;;;;;6267927;28;20047;-60
2023/04/11 08:25:31;;;;;;;17.88;10.48;;;;;;;;;;6266178;28;20048;-60
2023/04/11 08:28:31;;;;;;;;;;;;;;;;;;6268115;28;20048;-61
2023/04/11 08:31:32;;;;;;;15.50;8.43;;;;;;;;;;6266591;28;19928;-61
2023/04/11 08:34:33;;;;;;;18.63;11.25;;;;;;;;;;6267305;28;20049;-60
2023/04/11 08:37:33;;;;;;;17.65;10.95;;;;;;;;;;6266603;28;20044;-60
2023/04/11 08:40:34;;;;;;;17.55;10.77;;;;;;;;;;6271648;28;20068;-59
2023/04/11 08:43:36;;;;;;;16.63;10.35;;;;;;;;;;6273148;28;20449;-62
2023/04/11 08:46:39;;;;;;;;;;;;;;;;;;6270921;28;20049;-60
2023/04/11 08:49:40;;;;;;;13.45;8.27;;;;;;;;;;6272875;28;19925;-61
2023/04/11 08:52:42;;;;;;;15.57;8.52;;;;;;;;;;6271165;28;20695;-61
2023/04/11 08:55:44;;;;;;;;;;;;;;;;;;6269192;28;20088;-61
2023/04/11 08:58:45;;;;;;;13.52;8.57;;;;;;;;;;6272932;28;19924;-59
2023/04/11 09:01:47;;;;;;;14.32;9.43;;;;;;;;;;6272484;28;20048;-61
2023/04/11 09:04:48;;;;;;;13.70;10.02;;;;;;;;;;6270302;28;20049;-60
2023/04/11 09:07:49;;;;;;;16.42;10.75;;;;;;;;;;6271673;28;20041;-61
2023/04/11 09:10:49;;;;;;;18.98;9.02;;;;;;;;;;6274335;28;20550;-61
2023/04/11 09:14:10;;;;;;;16.08;9.32;;;;;;;;;;6273571;28;20044;-61
2023/04/11 09:17:15;;;;;;;15.13;9.38;;;;;;;;;;6271475;28;20052;-60
2023/04/11 09:20:29;;;;;;;13.15;9.23;;;;;;;;;;6270090;28;20051;-61
2023/04/11 09:23:29;;;;;;;14.52;9.50;;;;;;;;;;6272451;28;20040;-60
2023/04/11 09:26:30;;;;;;;15.82;10.30;;;;;;;;;;6272428;28;21033;-61
2023/04/11 09:29:36;;;;;;;14.05;8.93;;;;;;;;;;6268172;28;20098;-60
2023/04/11 09:32:37;;;;;;;13.60;8.25;;;;;;;;;;6271357;28;20753;-60
2023/04/11 09:35:37;;;;;;;14.75;9.20;;;;;;;;;;6274545;28;20044;-60
2023/04/11 09:38:38;;;;;;;18.77;10.30;;;;;;;;;;6271879;28;20119;-61
2023/04/11 09:41:40;;;;;;;15.05;8.52;;;;;;;;;;6275269;28;20045;-62
2023/04/11 09:44:40;;;;;;;11.17;7.93;;;;;;;;;;6277691;28;20044;-59
2023/04/11 09:47:41;;;;;;;12.43;8.00;;;;;;;;;;6274180;28;20183;-60
2023/04/11 09:50:42;;;;;;;13.48;8.63;;;;;;;;;;6272393;28;20055;-61
2023/04/11 09:53:43;;;;;;;13.37;8.00;;;;;;;;;;6271259;28;20097;-60
2023/04/11 09:56:43;;;;;;;11.45;6.95;;;;;;;;;;6274881;28;20041;-61
2023/04/11 09:59:44;;;;;;;11.82;7.57;;;;;;;;;;6274403;28;20055;-60
2023/04/11 10:02:47;;;;;;;11.27;8.18;;;;;;;;;;6276856;28;21013;-60
2023/04/11 10:05:52;;;;;;;11.23;6.88;;;;;;;;;;6275625;28;20638;-60
2023/04/11 10:08:52;;;;;;;10.90;7.50;;;;;;;;;;6275161;28;20051;-60
2023/04/11 10:11:53;;;;;;;13.65;8.45;;;;;;;;;;6272735;28;21269;-61
2023/04/11 10:14:55;;;;;;;11.02;6.03;;;;;;;;;;6272833;28;20067;-61
2023/04/11 10:18:12;;;;;;;11.95;6.53;;;;;;;;;;6273383;28;20056;-61
2023/04/11 10:21:28;;;;;;;9.27;5.78;;;;;;;;;;6273932;28;20081;-60
2023/04/11 10:24:29;;;;;;;17.17;8.25;;;;;;;;;;6273169;28;20048;-60
2023/04/11 10:27:55;;;;;;;13.23;7.45;;;;;;;;;;6274889;28;20045;-61
2023/04/11 10:31:02;;;;;;;11.98;7.00;;;;;;;;;;6272952;28;20048;-61
2023/04/11 10:34:20;;;;;;;11.98;6.50;;;;;;;;;;6270421;28;20510;-60
2023/04/11 10:37:31;;;;;;;12.60;6.97;;;;;;;;;;6270920;28;20148;-60
2023/04/11 10:40:32;;;;;;;11.95;6.97;;;;;;;;;;6272342;28;21378;-61
2023/04/11 10:43:35;;;;;;;18.80;9.90;;;;;;;;;;6268299;28;20423;-61
2023/04/11 10:46:43;;;;;;;16.42;8.75;;;;;;;;;;6272773;28;20053;-61
2023/04/11 10:49:46;;;;;;;18.27;10.13;;;;;;;;;;6274340;28;20133;-60
2023/04/11 10:52:47;;;;;;;14.02;8.20;;;;;;;;;;6269532;28;20902;-61
2023/04/11 10:55:49;;;;;;;18.33;8.95;;;;;;;;;;6273494;28;20045;-61
2023/04/11 10:58:52;;;;;;;14.50;8.10;;;;;;;;;;6271780;28;20120;-60
2023/04/11 11:01:53;;;;;;;21.65;10.55;;;;;;;;;;6272755;28;20045;-59
2023/04/11 11:04:54;;;;;;;11.93;7.50;;;;;;;;;;6271504;28;20063;-60
2023/04/11 11:07:55;;;;;;;11.73;7.43;;;;;;;;;;6274835;28;20049;-60
2023/04/11 11:11:05;;;;;;;18.52;9.80;;;;;;;;;;6274320;28;20063;-60
2023/04/11 11:14:07;;;;;;;14.45;8.68;;;;;;;;;;6269368;28;20045;-61
2023/04/11 11:17:10;;;;;;;;;;;;;;;;;;6275070;28;20045;-60
2023/04/11 11:20:18;;;;;;;;;;;;;;;;;;6276171;28;19920;-60
2023/04/11 11:23:19;;;;;;;12.18;7.90;;;;;;;;;;6273674;28;19928;-60
2023/04/11 11:26:20;;;;;;;17.63;9.95;;;;;;;;;;6276245;28;20542;-60
2023/04/11 11:29:46;;;;;;;14.50;8.73;;;;;;;;;;6273786;28;20049;-60
2023/04/11 11:32:47;;;;;;;13.88;8.38;;;;;;;;;;6273823;28;20052;-60
2023/04/11 11:35:51;;;;;;;15.75;9.07;;;;;;;;;;6275377;28;20045;-60
2023/04/11 11:38:52;;;;;;;11.73;8.20;;;;;;;;;;6277467;28;20746;-60
2023/04/11 11:41:53;;;;;;;14.63;8.07;;;;;;;;;;6271716;28;20060;-60
2023/04/11 11:45:13;;;;;;;13.15;8.65;;;;;;;;;;6270259;28;20499;-60
2023/04/11 11:48:22;;;;;;;16.20;8.43;;;;;;;;;;6270259;28;20136;-62
2023/04/11 11:51:23;;;;;;;13.70;8.85;;;;;;;;;;6271898;28;20518;-62
2023/04/11 11:54:23;;;;;;;13.25;7.43;;;;;;;;;;6270570;28;20103;-62
2023/04/11 11:57:24;;;;;;;9.82;7.05;;;;;;;;;;6269943;28;20087;-62
2023/04/11 12:00:27;;;;;;;14.73;7.50;;;;;;;;;;6274488;28;20534;-62
2023/04/11 12:03:29;;;;;;;11.70;6.93;;;;;;;;;;6271673;28;20055;-62
2023/04/11 12:06:30;;;;;;;13.77;7.63;;;;;;;;;;6270389;28;20071;-61
2023/04/11 12:09:32;;;;;;;10.40;6.07;;;;;;;;;;6268951;28;20499;-62
2023/04/11 12:12:41;;;;;;;9.33;6.07;;;;;;;;;;6269636;28;20131;-62
2023/04/11 12:15:49;;;;;;;9.85;6.05;;;;;;;;;;6275340;28;20311;-63
2023/04/11 12:18:50;;;;;;;9.27;5.78;;;;;;;;;;6274018;28;20503;-62
2023/04/11 12:21:51;;;;;;;10.82;5.90;;;;;;;;;;6276212;28;20040;-63
2023/04/11 12:25:02;;;;;;;8.83;5.63;;;;;;;;;;6274670;28;20045;-62
2023/04/11 12:28:02;;;;;;;9.35;5.85;;;;;;;;;;6276926;28;20068;-62
2023/04/11 12:31:03;;;;;;;10.55;6.07;;;;;;;;;;6274105;28;20053;-61
2023/04/11 12:34:04;;;;;;;9.13;5.70;;;;;;;;;;6274731;28;20470;-62
2023/04/11 12:37:05;;;;;;;11.18;6.60;;;;;;;;;;6274993;28;20044;-62
2023/04/11 12:40:10;;;;;;;10.23;6.35;;;;;;;;;;6275915;28;21250;-63
2023/04/11 12:43:11;;;;;;;11.00;6.50;;;;;;;;;;6275389;28;20044;-62
2023/04/11 12:46:12;;;;;;;9.55;6.13;;;;;;;;;;6273802;28;20044;-62
2023/04/11 12:49:12;;;;;;;11.30;6.95;;;;;;;;;;6275291;28;20068;-62
2023/04/11 12:52:13;;;;;;;11.90;6.65;;;;;;;;;;6275978;28;20148;-61
2023/04/11 12:55:14;;;;;;;10.60;7.20;;;;;;;;;;6279472;28;20045;-61
2023/04/11 12:58:15;;;;;;;12.00;6.63;;;;;;;;;;6276568;28;20048;-56
2023/04/11 13:01:16;;;;;;;12.15;7.38;;;;;;;;;;6275734;28;20064;-59
2023/04/11 13:04:16;;;;;;;14.93;8.10;;;;;;;;;;6274975;28;20048;-60
2023/04/11 13:07:17;;;;;;;12.88;7.85;;;;;;;;;;6274343;28;20406;-59
2023/04/11 13:10:18;;;;;;;10.70;7.25;;;;;;;;;;6273668;28;20098;-60
2023/04/11 13:13:19;;;;;;;14.77;7.45;;;;;;;;;;6274540;28;20217;-60
2023/04/11 13:16:20;;;;;;;13.43;8.35;;;;;;;;;;6275979;28;20052;-61
2023/04/11 13:19:21;;;;;;;11.88;6.97;;;;;;;;;;6275048;28;20041;-61
2023/04/11 13:22:22;;;;;;;12.48;8.27;;;;;;;;;;6276206;28;20667;-59
2023/04/11 13:25:23;;;;;;;12.23;7.78;;;;;;;;;;6273681;28;20133;-59
2023/04/11 13:28:23;;;;;;;13.32;7.68;;;;;;;;;;6273657;28;20517;-60
2023/04/11 13:31:25;;;;;;;13.35;7.65;;;;;;;;;;6273131;28;20055;-60
2023/04/11 13:34:26;;;;;;;14.23;7.88;;;;;;;;;;6272263;28;20159;-61
2023/04/11 13:37:27;;;;;;;14.10;7.43;;;;;;;;;;6279946;28;20119;-60
2023/04/11 13:40:27;;;;;;;14.57;8.40;;;;;;;;;;6273232;28;20071;-60
2023/04/11 13:43:28;;;;;;;12.15;7.22;;;;;;;;;;6275960;28;20077;-60
2023/04/11 13:46:29;;;;;;;11.55;7.30;;;;;;;;;;6278326;28;20044;-60
2023/04/11 13:49:29;;;;;;;11.63;6.53;;;;;;;;;;6274407;28;20706;-60
2023/04/11 13:52:30;;;;;;;11.50;7.20;;;;;;;;;;6275864;28;20252;-60
2023/04/11 13:55:31;;;;;;;11.30;6.82;;;;;;;;;;6275046;28;20041;-60
2023/04/11 13:58:33;;;;;;;10.57;5.82;;;;;;;;;;6279247;28;20048;-60
2023/04/11 14:01:33;;;;;;;10.75;6.20;;;;;;;;;;6275012;28;20055;-61
2023/04/11 14:04:34;;;;;;;11.18;6.55;;;;;;;;;;6271889;28;20724;-62
2023/04/11 14:07:34;;;;;;;11.65;6.78;;;;;;;;;;6275569;28;20140;-61
2023/04/11 14:10:35;;;;;;;13.45;7.63;;;;;;;;;;6273005;28;20064;-61
2023/04/11 14:13:36;;;;;;;14.93;8.63;;;;;;;;;;6274427;28;20060;-60
2023/04/11 14:16:36;;;;;;;15.95;8.88;;;;;;;;;;6278030;28;20569;-60
2023/04/11 14:19:37;;;;;;;16.02;9.07;;;;;;;;;;6275673;28;20111;-61
2023/04/11 14:22:37;;;;;;;16.33;9.68;;;;;;;;;;6275068;28;20556;-60
2023/04/11 14:25:38;;;;;;;16.17;9.48;;;;;;;;;;6275419;28;20056;-61
2023/04/11 14:28:39;;;;;;;16.70;9.27;;;;;;;;;;6274155;28;20060;-61
2023/04/11 14:31:40;;;;;;;15.55;8.73;;;;;;;;;;6272096;28;20057;-60
2023/04/11 14:34:42;;;;;;;15.23;8.52;;;;;;;;;;6271628;28;20064;-60
2023/04/11 14:37:43;;;;;;;14.77;8.27;;;;;;;;;;6276306;28;20143;-61
2023/04/11 14:40:44;;;;;;;14.43;8.02;;;;;;;;;;6273934;28;20044;-60
2023/04/11 14:43:45;;;;;;;13.38;7.75;;;;;;;;;;6273819;28;20125;-60
2023/04/11 14:46:45;;;;;;;13.75;8.18;;;;;;;;;;6273934;28;20041;-61
2023/04/11 14:49:46;;;;;;;18.27;9.88;;;;;;;;;;6274655;28;20051;-60
2023/04/11 14:52:47;;;;;;;19.50;11.82;;;;;;;;;;6271483;28;20049;-61
2023/04/11 14:55:47;;;;;;;10.18;6.20;;;;;;;;;;6272234;28;20282;-61
2023/04/11 14:58:49;;;;;;;9.93;4.88;;;;;;;;;;6272167;28;20060;-60
2023/04/11 15:01:50;;;;;;;9.57;5.60;;;;;;;;;;6272395;28;20052;-60
2023/04/11 15:04:52;;;;;;;12.25;5.93;;;;;;;;;;6276225;28;20514;-61
2023/04/11 15:07:52;;;;;;;12.15;6.35;;;;;;;;;;6284134;28;20338;-60
2023/04/11 15:10:54;;;;;;;9.93;5.28;;;;;;;;;;6282628;28;20150;-61
2023/04/11 15:13:55;;;;;;;13.18;5.40;;;;;;;;;;6279113;28;20493;-60
2023/04/11 15:16:56;;;;;;;10.07;5.20;;;;;;;;;;6283900;28;20058;-60
2023/04/11 15:19:58;;;;;;;10.80;5.70;;;;;;;;;;6278775;28;20121;-60
2023/04/11 15:22:58;;;;;;;10.43;5.35;;;;;;;;;;6276184;28;20052;-61
2023/04/11 15:26:01;;;;;;;10.30;5.28;;;;;;;;;;6282232;28;20044;-61
2023/04/11 15:29:02;;;;;;;11.88;5.70;;;;;;;;;;6282749;28;20123;-60
2023/04/11 15:32:02;;;;;;;10.27;4.75;;;;;;;;;;6277231;28;20044;-61
2023/04/11 15:35:03;;;;;;;11.63;4.80;;;;;;;;;;6281345;28;20212;-60
2023/04/11 15:38:04;;;;;;;8.48;4.28;;;;;;;;;;6281684;28;20049;-60
2023/04/11 15:41:06;;;;;;;8.30;4.13;;;;;;;;;;6280515;28;20474;-60
2023/04/11 15:44:06;;;;;;;8.70;4.90;;;;;;;;;;6279691;28;20071;-60
2023/04/11 15:47:07;;;;;;;7.97;4.50;;;;;;;;;;6283345;28;20118;-60
2023/04/11 15:50:08;;;;;;;6.13;3.78;;;;;;;;;;6279728;28;20049;-60
2023/04/11 15:53:09;;;;;;;9.73;4.55;;;;;;;;;;6277568;28;20754;-59
2023/04/11 15:56:10;;;;;;;6.75;3.20;;;;;;;;;;6283385;28;20057;-60
2023/04/11 15:59:11;;;;;;;7.45;4.00;;;;;;;;;;6281380;28;20151;-59
2023/04/11 16:02:13;;;;;;;5.95;2.85;;;;;;;;;;6274187;28;20143;-60
2023/04/11 16:05:14;;;;;;;;;;;;;;;;;;6279727;28;20155;-59
2023/04/11 16:08:14;;;;;;;6.80;2.90;;;;;;;;;;6282322;28;19925;-59
2023/04/11 16:11:15;;;;;;;9.00;3.33;;;;;;;;;;6281320;28;20048;-59
2023/04/11 16:14:16;;;;;;;8.45;3.75;;;;;;;;;;6278740;28;20037;-59
2023/04/11 16:17:19;;;;;;;6.78;3.33;;;;;;;;;;6282676;28;20040;-60
2023/04/11 16:20:20;;;;;;;8.05;4.10;;;;;;;;;;6281193;28;20147;-60
2023/04/11 16:23:21;;;;;;;9.35;4.72;;;;;;;;;;6278160;28;20823;-60
2023/04/11 16:26:21;;;;;;;8.90;4.10;;;;;;;;;;6281983;28;20052;-60
2023/04/11 16:29:23;;;;;;;9.70;4.60;;;;;;;;;;6281940;28;20131;-60
2023/04/11 16:32:24;;;;;;;10.77;5.33;;;;;;;;;;6278925;28;20048;-60
2023/04/11 16:35:25;;;;;;;11.98;6.03;;;;;;;;;;6282394;28;20056;-60
2023/04/11 16:38:26;;;;;;;14.40;7.10;;;;;;;;;;6282235;28;20048;-60
2023/04/11 16:41:26;;;;;;;16.58;7.93;;;;;;;;;;6280992;28;20064;-61
2023/04/11 16:44:27;;;;;;;15.40;7.53;;;;;;;;;;6278901;28;20040;-60
2023/04/11 16:47:28;;;;;;;16.35;8.52;;;;;;;;;;6282545;28;20094;-61
2023/04/11 16:50:28;;;;;;;16.60;8.85;;;;;;;;;;6279216;28;20553;-59
2023/04/11 16:53:29;;;;;;;16.45;8.27;;;;;;;;;;6279116;28;20486;-59
2023/04/11 16:56:30;;;;;;;17.02;8.05;;;;;;;;;;6281767;28;20419;-59
2023/04/11 16:59:31;;;;;;;15.82;8.43;;;;;;;;;;6278277;28;20040;-58
2023/04/11 17:02:32;;;;;;;16.85;8.93;;;;;;;;;;6280246;28;20510;-59
2023/04/11 17:05:36;;;;;;;17.83;8.90;;;;;;;;;;6285790;28;20412;-58
2023/04/11 17:08:38;;;;;;;17.80;9.02;;;;;;;;;;6285837;28;20055;-58
2023/04/11 17:11:39;;;;;;;21.27;10.40;;;;;;;;;;6285253;28;20087;-56
2023/04/11 17:14:40;;;;;;;21.38;10.18;;;;;;;;;;6282546;28;20052;-58
2023/04/11 17:17:41;;;;;;;15.82;7.88;;;;;;;;;;6286637;28;20431;-59
2023/04/11 17:20:42;;;;;;;19.60;9.32;;;;;;;;;;6284756;28;20056;-59
2023/04/11 17:23:44;;;;;;;17.80;8.80;;;;;;;;;;6283235;28;20055;-59
2023/04/11 17:26:45;;;;;;;12.65;6.68;;;;;;;;;;6284248;28;20041;-59
2023/04/11 17:29:46;;;;;;;12.45;6.00;;;;;;;;;;6284264;28;20114;-58
2023/04/11 17:32:47;;;;;;;11.90;6.88;;;;;;;;;;6282126;28;20487;-58
2023/04/11 17:35:49;;;;;;;9.88;5.45;;;;;;;;;;6284061;28;20052;-62
2023/04/11 17:38:53;;;;;;;12.90;6.07;;;;;;;;;;6282596;28;20060;-60
2023/04/11 17:41:56;;;;;;;10.50;5.32;;;;;;;;;;6280516;28;20495;-61
2023/04/11 17:44:56;;;;;;;12.57;6.45;;;;;;;;;;6283731;28;20064;-60
2023/04/11 17:47:58;;;;;;;12.80;6.43;;;;;;;;;;6285877;28;20162;-59